cover

Pig&Dan - Eagles From Space (Alt Mix)

Get it on iTunes StoreListen on Apple Music

Trackname / Key / BPM / Publish dateArtists, Remixers / Label
125 bpm, 7B / F major, 2018-10-12, Techno,  2  63

Tracks in release Toolroom Amsterdam 2018

#Trackname / Key / BPM / Publish dateArtists, Remixers / Label
1 125 bpm, 6A / G minor, 2018-10-12, House,  8  63
2 128 bpm, 4B / Ab major, 2018-10-12, Breaks,  7  63
3 125 bpm, 9A / E minor, 2018-10-12, Tech House,  9  63
4 109 bpm, 4A / F minor, 2018-10-12, House,  2  63
5 123 bpm, 5B / Eb major, 2018-10-12, House,  2  63
6 122 bpm, 5A / C minor, 2018-10-12, House,  9  63
7 124 bpm, 9A / E minor, 2018-10-12, Tech House,  4  63
8 124 bpm, 9B / G major, 2018-10-12, Tech House,  7  63
9 126 bpm, 5A / C minor, 2018-10-12, Tech House,  8  63
10 127 bpm, / , 2018-10-12, House,  5  63
11 124 bpm, 1B / B major, 2018-10-12, Tech House,  10  63
12 125 bpm, 7B / F major, 2018-10-12, House,  11  63
13 124 bpm, 8A / A minor, 2018-10-12, House,  1  63
14 127 bpm, / , 2018-10-12, Tech House,  2  63
15 122 bpm, 8B / C major, 2018-10-12, Tech House,  14  63
16 124 bpm, 5B / Eb major, 2018-10-12, Tech House,  7  63
17 123 bpm, 6A / G minor, 2018-10-12, House,  0  63
18 125 bpm, 9A / E minor, 2018-10-12, Tech House,  5  63
19 125 bpm, 4A / F minor, 2018-10-12, Tech House,  7  63
20 124 bpm, 1B / B major, 2018-10-12, Tech House,  6  63
21 124 bpm, 6A / G minor, 2018-10-12, Tech House,  1  63
22 124 bpm, 9B / G major, 2018-10-12, Tech House,  0  63
23 125 bpm, 1B / B major, 2018-10-12, Tech House,  0  63
24 124 bpm, 2A / Eb minor, 2018-10-12, Tech House,  3  63
25 123 bpm, 7A / D minor, 2018-10-12, Tech House,  5  63
26 125 bpm, 4A / F minor, 2018-10-12, Tech House,  2  63
27 123 bpm, 3B / Db major, 2018-10-12, House,  5  63
28 124 bpm, 6A / G minor, 2018-10-12, Tech House,  1  63
29 127 bpm, 1A / Ab minor, 2018-10-12, Tech House,  1  63
30 122 bpm, 12A / Db minor, 2018-10-12, Tech House,  1  63
31 125 bpm, 4A / F minor, 2018-10-12, Tech House,  3  63
32 123 bpm, 12B / E major, 2018-10-12, Tech House,  6  63
33 125 bpm, 10A / B minor, 2018-10-12, House,  0  63
34 124 bpm, 5A / C minor, 2018-10-12, Tech House,  6  63
35 122 bpm, / , 2018-10-12, Tech House,  1  63
36 121 bpm, / , 2018-10-12, Deep House,  1  63
37 123 bpm, 9A / E minor, 2018-10-12, House,  5  63
38 128 bpm, 3A / Bb minor, 2018-10-12, Trance,  0  63
39 123 bpm, 4A / F minor, 2018-10-12, Tech House,  4  63
40 128 bpm, 5B / Eb major, 2018-10-12, Techno,  4  63
41 122 bpm, 6A / G minor, 2018-10-12, Deep House,  0  63
42 124 bpm, 7B / F major, 2018-10-12, Tech House,  4  63
43 122 bpm, 8A / A minor, 2018-10-12, Deep House,  0  63
44 124 bpm, 9B / G major, 2018-10-12, House,  1  63
45 124 bpm, 10A / B minor, 2018-10-12, Tech House,  3  63
46 125 bpm, 10A / B minor, 2018-10-12, Techno,  2  63
47 124 bpm, 6A / G minor, 2018-10-12, Tech House,  1  63
48 125 bpm, 7B / F major, 2018-10-12, Techno,  2  63
49 124 bpm, 11B / A major, 2018-10-12, House,  2  63
50 125 bpm, 8A / A minor, 2018-10-12, Tech House,  12  63
51 123 bpm, 2A / Eb minor, 2018-10-12, House,  1  63
52 121 bpm, 6A / G minor, 2018-10-12, Deep House,  0  63
53 122 bpm, 11B / A major, 2018-10-12, Tech House,  4  63
54 125 bpm, 12A / Db minor, 2018-10-12, Techno,  1  63
55 126 bpm, 6A / G minor, 2018-10-12, Tech House,  1  63
56 125 bpm, 4B / Ab major, 2018-10-12, Techno,  5  63
57 124 bpm, 1A / Ab minor, 2018-10-12, Tech House,  8  63
58 126 bpm, 3B / Db major, 2018-10-12, Techno,  8  63
59 126 bpm, 7B / F major, 2018-10-12, Techno,  0  63
60 123 bpm, 6A / G minor, 2018-10-12, Tech House,  7  63
61 124 bpm, 8A / A minor, 2018-10-12, House,  0  63
62 124 bpm, 8A / A minor, 2018-10-12, Tech House,  0  63
63 125 bpm, 10A / B minor, 2018-10-12, Techno,  0  63

Recommendations

#Trackname / Key / BPM / Publish dateArtists, Remixers / Label
1 126 bpm, / , 2012-04-30, Techno,  49  1   4
2 128 bpm, 10B / D major, 2018-09-10, Melodic House & Techno,  32  1   22
1
3 128 bpm, 7B / F major, 2018-10-29, Techno,  17  1   8
4 123 bpm, 9B / G major, 2018-09-28, Tech House,  16  1   2
5 126 bpm, 11B / A major, 2018-10-08, Techno,  15  1   4
6 126 bpm, 6A / G minor, 2018-10-12, Techno,  12  1   3
7 125 bpm, 12B / E major, 2018-10-08, Melodic House & Techno,  12  1   2
1
8 126 bpm, 5B / Eb major, 2018-10-08, Techno,  11  1   4
9 126 bpm, 8A / A minor, 2018-03-16, Techno,  8  1   2
10 126 bpm, / , 2018-10-05, Techno,  5  1   1
1
11 125 bpm, 8A / A minor, 2018-10-04, Techno,  4  1   15
12 124 bpm, 9A / E minor, 2018-09-10, Tech House,  4  1   3
13 124 bpm, / , 2018-09-10, Tech House,  3  1   3
14 127 bpm, 5A / C minor, 2018-10-04, Techno,  2  1   15
15 123 bpm, 5B / Eb major, 2018-04-23, Minimal,  2  1   6
16 124 bpm, / , 2018-09-10, Tech House,  2  1   3
17 125 bpm, 8B / C major, 2018-10-11, Techno,  1  1   15

Charts

ArtistTitleGenresPublish date
BudaiBudai - All Night Long Bday ChartTechno, Tech House, Minimal 2019-01-30
Sam GregoryOctober 2018 ChartTechno, Melodic House & Techno 2018-10-13
×

Sign in

Sign in to access your personalized pages, follow artists and labels you love, and create playlists fromyour favorite tracks.

Please wait...